sensor_id;sensor_type;location;lat;lon;timestamp;P1;durP1;ratioP1;P2;durP2;ratioP2
37407;SDS011;24866;50.248;8.252;2022-11-20T00:01:36;27.33;;;13.15;;
37407;SDS011;24866;50.248;8.252;2022-11-20T00:04:08;26.80;;;14.30;;
37407;SDS011;24866;50.248;8.252;2022-11-20T00:06:40;25.20;;;14.77;;
37407;SDS011;24866;50.248;8.252;2022-11-20T00:09:10;27.27;;;14.18;;
37407;SDS011;24866;50.248;8.252;2022-11-20T00:11:41;26.52;;;14.57;;
37407;SDS011;24866;50.248;8.252;2022-11-20T00:14:11;28.48;;;14.20;;
37407;SDS011;24866;50.248;8.252;2022-11-20T00:16:41;26.17;;;14.38;;
37407;SDS011;24866;50.248;8.252;2022-11-20T00:19:12;27.10;;;14.13;;
37407;SDS011;24866;50.248;8.252;2022-11-20T00:21:45;28.65;;;14.15;;
37407;SDS011;24866;50.248;8.252;2022-11-20T00:24:15;26.58;;;14.85;;
37407;SDS011;24866;50.248;8.252;2022-11-20T00:26:47;25.05;;;13.65;;
37407;SDS011;24866;50.248;8.252;2022-11-20T00:29:17;24.23;;;13.50;;
37407;SDS011;24866;50.248;8.252;2022-11-20T00:31:47;28.30;;;15.38;;
37407;SDS011;24866;50.248;8.252;2022-11-20T00:34:17;27.33;;;15.18;;
37407;SDS011;24866;50.248;8.252;2022-11-20T00:36:47;26.23;;;15.02;;
37407;SDS011;24866;50.248;8.252;2022-11-20T00:39:17;26.48;;;13.35;;
37407;SDS011;24866;50.248;8.252;2022-11-20T00:41:48;26.75;;;13.68;;
37407;SDS011;24866;50.248;8.252;2022-11-20T00:44:18;25.83;;;14.68;;
37407;SDS011;24866;50.248;8.252;2022-11-20T00:46:48;27.35;;;14.18;;
37407;SDS011;24866;50.248;8.252;2022-11-20T00:49:18;22.85;;;13.55;;
37407;SDS011;24866;50.248;8.252;2022-11-20T00:51:47;28.33;;;14.48;;
37407;SDS011;24866;50.248;8.252;2022-11-20T00:54:17;27.13;;;14.43;;
37407;SDS011;24866;50.248;8.252;2022-11-20T00:56:49;25.30;;;13.57;;
37407;SDS011;24866;50.248;8.252;2022-11-20T00:59:19;26.88;;;15.02;;
37407;SDS011;24866;50.248;8.252;2022-11-20T01:01:49;23.15;;;13.32;;
37407;SDS011;24866;50.248;8.252;2022-11-20T01:04:19;26.13;;;14.77;;
37407;SDS011;24866;50.248;8.252;2022-11-20T01:06:48;29.95;;;14.20;;
37407;SDS011;24866;50.248;8.252;2022-11-20T01:09:18;26.02;;;14.38;;
37407;SDS011;24866;50.248;8.252;2022-11-20T01:11:50;24.00;;;13.25;;
37407;SDS011;24866;50.248;8.252;2022-11-20T01:14:20;26.73;;;15.02;;
37407;SDS011;24866;50.248;8.252;2022-11-20T01:16:50;25.17;;;14.68;;
37407;SDS011;24866;50.248;8.252;2022-11-20T01:19:22;26.35;;;14.90;;
37407;SDS011;24866;50.248;8.252;2022-11-20T01:21:53;34.60;;;16.90;;
37407;SDS011;24866;50.248;8.252;2022-11-20T01:24:23;31.38;;;16.15;;
37407;SDS011;24866;50.248;8.252;2022-11-20T01:26:55;26.08;;;14.65;;
37407;SDS011;24866;50.248;8.252;2022-11-20T01:29:24;28.50;;;15.57;;
37407;SDS011;24866;50.248;8.252;2022-11-20T01:31:54;29.98;;;16.80;;
37407;SDS011;24866;50.248;8.252;2022-11-20T01:34:24;29.58;;;16.00;;
37407;SDS011;24866;50.248;8.252;2022-11-20T01:36:54;28.15;;;14.30;;
37407;SDS011;24866;50.248;8.252;2022-11-20T01:39:25;28.92;;;14.63;;
37407;SDS011;24866;50.248;8.252;2022-11-20T01:41:57;28.48;;;16.25;;
37407;SDS011;24866;50.248;8.252;2022-11-20T01:44:49;26.88;;;15.15;;
37407;SDS011;24866;50.248;8.252;2022-11-20T01:47:27;30.70;;;16.05;;
37407;SDS011;24866;50.248;8.252;2022-11-20T01:50:04;27.58;;;14.55;;
37407;SDS011;24866;50.248;8.252;2022-11-20T01:52:36;31.75;;;14.15;;
37407;SDS011;24866;50.248;8.252;2022-11-20T01:55:09;30.58;;;14.20;;
37407;SDS011;24866;50.248;8.252;2022-11-20T01:57:43;25.08;;;14.10;;
37407;SDS011;24866;50.248;8.252;2022-11-20T02:00:15;31.55;;;15.43;;
37407;SDS011;24866;50.248;8.252;2022-11-20T02:02:47;29.70;;;15.68;;
37407;SDS011;24866;50.248;8.252;2022-11-20T02:05:22;26.60;;;14.07;;
37407;SDS011;24866;50.248;8.252;2022-11-20T02:07:56;31.45;;;17.20;;
37407;SDS011;24866;50.248;8.252;2022-11-20T02:10:28;27.08;;;15.27;;
37407;SDS011;24866;50.248;8.252;2022-11-20T02:13:00;28.65;;;14.98;;
37407;SDS011;24866;50.248;8.252;2022-11-20T02:15:50;29.73;;;14.38;;
37407;SDS011;24866;50.248;8.252;2022-11-20T02:18:20;28.33;;;15.63;;
37407;SDS011;24866;50.248;8.252;2022-11-20T02:20:52;32.67;;;16.08;;
37407;SDS011;24866;50.248;8.252;2022-11-20T02:23:29;31.10;;;15.40;;
37407;SDS011;24866;50.248;8.252;2022-11-20T02:26:03;31.10;;;15.38;;
37407;SDS011;24866;50.248;8.252;2022-11-20T02:28:37;28.35;;;14.52;;
37407;SDS011;24866;50.248;8.252;2022-11-20T02:31:07;29.27;;;15.18;;
37407;SDS011;24866;50.248;8.252;2022-11-20T02:33:37;30.20;;;15.07;;
37407;SDS011;24866;50.248;8.252;2022-11-20T02:36:08;38.42;;;16.15;;
37407;SDS011;24866;50.248;8.252;2022-11-20T02:38:40;35.80;;;16.83;;
37407;SDS011;24866;50.248;8.252;2022-11-20T02:41:12;30.77;;;15.38;;
37407;SDS011;24866;50.248;8.252;2022-11-20T02:43:42;37.08;;;15.82;;
37407;SDS011;24866;50.248;8.252;2022-11-20T02:46:12;33.05;;;16.45;;
37407;SDS011;24866;50.248;8.252;2022-11-20T02:48:42;30.13;;;15.43;;
37407;SDS011;24866;50.248;8.252;2022-11-20T02:51:12;26.45;;;14.93;;
37407;SDS011;24866;50.248;8.252;2022-11-20T02:53:42;29.92;;;16.38;;
37407;SDS011;24866;50.248;8.252;2022-11-20T02:56:13;33.13;;;15.25;;
37407;SDS011;24866;50.248;8.252;2022-11-20T02:58:44;30.02;;;15.65;;
37407;SDS011;24866;50.248;8.252;2022-11-20T03:01:14;28.65;;;14.68;;
37407;SDS011;24866;50.248;8.252;2022-11-20T03:03:44;28.52;;;15.30;;
37407;SDS011;24866;50.248;8.252;2022-11-20T03:06:16;27.17;;;14.13;;
37407;SDS011;24866;50.248;8.252;2022-11-20T03:08:46;29.52;;;15.45;;
37407;SDS011;24866;50.248;8.252;2022-11-20T03:11:17;29.60;;;14.05;;
37407;SDS011;24866;50.248;8.252;2022-11-20T03:13:47;28.55;;;14.10;;
37407;SDS011;24866;50.248;8.252;2022-11-20T03:16:18;30.27;;;15.55;;
37407;SDS011;24866;50.248;8.252;2022-11-20T03:18:49;28.67;;;13.73;;
37407;SDS011;24866;50.248;8.252;2022-11-20T03:23:52;31.35;;;14.98;;
37407;SDS011;24866;50.248;8.252;2022-11-20T03:26:24;26.60;;;13.80;;
37407;SDS011;24866;50.248;8.252;2022-11-20T03:28:55;29.85;;;15.68;;
37407;SDS011;24866;50.248;8.252;2022-11-20T03:31:27;28.40;;;15.18;;
37407;SDS011;24866;50.248;8.252;2022-11-20T03:33:58;29.50;;;16.05;;
37407;SDS011;24866;50.248;8.252;2022-11-20T03:36:28;26.00;;;14.30;;
37407;SDS011;24866;50.248;8.252;2022-11-20T03:38:59;26.77;;;14.73;;
37407;SDS011;24866;50.248;8.252;2022-11-20T03:41:31;26.33;;;13.80;;
37407;SDS011;24866;50.248;8.252;2022-11-20T03:44:05;27.98;;;15.43;;
37407;SDS011;24866;50.248;8.252;2022-11-20T03:46:36;26.63;;;14.60;;
37407;SDS011;24866;50.248;8.252;2022-11-20T03:49:06;26.98;;;14.48;;
37407;SDS011;24866;50.248;8.252;2022-11-20T03:51:36;28.85;;;15.32;;
37407;SDS011;24866;50.248;8.252;2022-11-20T03:54:07;25.50;;;14.68;;
37407;SDS011;24866;50.248;8.252;2022-11-20T03:56:39;27.35;;;14.00;;
37407;SDS011;24866;50.248;8.252;2022-11-20T03:59:09;24.27;;;13.80;;
37407;SDS011;24866;50.248;8.252;2022-11-20T04:01:39;25.85;;;13.48;;
37407;SDS011;24866;50.248;8.252;2022-11-20T04:04:09;29.05;;;15.65;;
37407;SDS011;24866;50.248;8.252;2022-11-20T04:06:39;27.75;;;15.02;;
37407;SDS011;24866;50.248;8.252;2022-11-20T04:09:09;29.33;;;16.15;;
37407;SDS011;24866;50.248;8.252;2022-11-20T04:11:40;27.98;;;14.82;;
37407;SDS011;24866;50.248;8.252;2022-11-20T04:14:11;27.75;;;14.50;;
37407;SDS011;24866;50.248;8.252;2022-11-20T04:16:43;29.08;;;15.45;;
37407;SDS011;24866;50.248;8.252;2022-11-20T04:19:14;24.83;;;14.50;;
37407;SDS011;24866;50.248;8.252;2022-11-20T04:21:45;26.80;;;15.55;;
37407;SDS011;24866;50.248;8.252;2022-11-20T04:24:14;25.83;;;14.13;;
37407;SDS011;24866;50.248;8.252;2022-11-20T04:26:46;28.65;;;14.80;;
37407;SDS011;24866;50.248;8.252;2022-11-20T04:29:16;25.17;;;14.50;;
37407;SDS011;24866;50.248;8.252;2022-11-20T04:31:47;29.55;;;16.02;;
37407;SDS011;24866;50.248;8.252;2022-11-20T04:34:16;29.75;;;15.63;;
37407;SDS011;24866;50.248;8.252;2022-11-20T04:36:46;28.02;;;14.02;;
37407;SDS011;24866;50.248;8.252;2022-11-20T04:39:16;24.83;;;14.30;;
37407;SDS011;24866;50.248;8.252;2022-11-20T04:41:47;32.30;;;15.93;;
37407;SDS011;24866;50.248;8.252;2022-11-20T04:44:37;30.70;;;16.27;;
37407;SDS011;24866;50.248;8.252;2022-11-20T04:47:07;33.53;;;15.70;;
37407;SDS011;24866;50.248;8.252;2022-11-20T04:49:37;32.38;;;16.20;;
37407;SDS011;24866;50.248;8.252;2022-11-20T04:52:07;28.00;;;15.43;;
37407;SDS011;24866;50.248;8.252;2022-11-20T04:54:37;30.25;;;16.88;;
37407;SDS011;24866;50.248;8.252;2022-11-20T04:57:08;32.13;;;14.75;;
37407;SDS011;24866;50.248;8.252;2022-11-20T04:59:38;30.63;;;15.82;;
37407;SDS011;24866;50.248;8.252;2022-11-20T05:02:08;33.00;;;16.27;;
37407;SDS011;24866;50.248;8.252;2022-11-20T05:04:38;31.42;;;16.02;;
37407;SDS011;24866;50.248;8.252;2022-11-20T05:07:08;31.73;;;16.25;;
37407;SDS011;24866;50.248;8.252;2022-11-20T05:09:38;33.92;;;17.60;;
37407;SDS011;24866;50.248;8.252;2022-11-20T05:12:10;35.28;;;16.88;;
37407;SDS011;24866;50.248;8.252;2022-11-20T05:14:39;35.75;;;16.35;;
37407;SDS011;24866;50.248;8.252;2022-11-20T05:17:10;34.58;;;17.50;;
37407;SDS011;24866;50.248;8.252;2022-11-20T05:19:40;40.10;;;17.60;;
37407;SDS011;24866;50.248;8.252;2022-11-20T05:22:10;37.25;;;17.92;;
37407;SDS011;24866;50.248;8.252;2022-11-20T05:24:40;37.53;;;16.88;;
37407;SDS011;24866;50.248;8.252;2022-11-20T05:27:11;39.85;;;17.02;;
37407;SDS011;24866;50.248;8.252;2022-11-20T05:29:41;35.13;;;16.05;;
37407;SDS011;24866;50.248;8.252;2022-11-20T05:32:11;37.83;;;16.58;;
37407;SDS011;24866;50.248;8.252;2022-11-20T05:34:41;38.25;;;17.67;;
37407;SDS011;24866;50.248;8.252;2022-11-20T05:37:10;37.88;;;18.48;;
37407;SDS011;24866;50.248;8.252;2022-11-20T05:39:40;39.33;;;17.38;;
37407;SDS011;24866;50.248;8.252;2022-11-20T05:42:12;36.15;;;17.30;;
37407;SDS011;24866;50.248;8.252;2022-11-20T05:45:00;39.95;;;17.50;;
37407;SDS011;24866;50.248;8.252;2022-11-20T05:47:33;34.80;;;17.27;;
37407;SDS011;24866;50.248;8.252;2022-11-20T05:50:03;37.45;;;18.25;;
37407;SDS011;24866;50.248;8.252;2022-11-20T05:52:34;36.25;;;17.58;;
37407;SDS011;24866;50.248;8.252;2022-11-20T05:55:04;40.75;;;18.13;;
37407;SDS011;24866;50.248;8.252;2022-11-20T05:57:36;38.95;;;17.77;;
37407;SDS011;24866;50.248;8.252;2022-11-20T06:00:07;36.75;;;18.48;;
37407;SDS011;24866;50.248;8.252;2022-11-20T06:02:37;37.72;;;19.00;;
37407;SDS011;24866;50.248;8.252;2022-11-20T06:05:07;39.17;;;18.77;;
37407;SDS011;24866;50.248;8.252;2022-11-20T06:07:37;39.97;;;18.45;;
37407;SDS011;24866;50.248;8.252;2022-11-20T06:10:07;39.63;;;18.55;;
37407;SDS011;24866;50.248;8.252;2022-11-20T06:12:39;41.20;;;19.40;;
37407;SDS011;24866;50.248;8.252;2022-11-20T06:15:09;42.08;;;18.48;;
37407;SDS011;24866;50.248;8.252;2022-11-20T06:17:39;40.47;;;19.23;;
37407;SDS011;24866;50.248;8.252;2022-11-20T06:20:09;47.92;;;20.70;;
37407;SDS011;24866;50.248;8.252;2022-11-20T06:22:39;41.30;;;19.52;;
37407;SDS011;24866;50.248;8.252;2022-11-20T06:25:09;43.38;;;19.10;;
37407;SDS011;24866;50.248;8.252;2022-11-20T06:27:41;48.30;;;20.38;;
37407;SDS011;24866;50.248;8.252;2022-11-20T06:30:11;49.80;;;22.27;;
37407;SDS011;24866;50.248;8.252;2022-11-20T06:32:41;43.33;;;19.75;;
37407;SDS011;24866;50.248;8.252;2022-11-20T06:35:11;47.40;;;20.77;;
37407;SDS011;24866;50.248;8.252;2022-11-20T06:37:41;49.42;;;21.20;;
37407;SDS011;24866;50.248;8.252;2022-11-20T06:40:11;49.13;;;20.92;;
37407;SDS011;24866;50.248;8.252;2022-11-20T06:42:43;49.78;;;20.83;;
37407;SDS011;24866;50.248;8.252;2022-11-20T06:45:13;48.93;;;20.53;;
37407;SDS011;24866;50.248;8.252;2022-11-20T06:47:43;46.58;;;20.48;;
37407;SDS011;24866;50.248;8.252;2022-11-20T06:50:13;46.58;;;20.58;;
37407;SDS011;24866;50.248;8.252;2022-11-20T06:52:43;47.78;;;21.15;;
37407;SDS011;24866;50.248;8.252;2022-11-20T06:55:13;51.70;;;20.42;;
37407;SDS011;24866;50.248;8.252;2022-11-20T06:57:44;46.70;;;20.55;;
37407;SDS011;24866;50.248;8.252;2022-11-20T07:00:14;47.65;;;20.80;;
37407;SDS011;24866;50.248;8.252;2022-11-20T07:02:44;47.42;;;21.92;;
37407;SDS011;24866;50.248;8.252;2022-11-20T07:05:14;46.65;;;18.98;;
37407;SDS011;24866;50.248;8.252;2022-11-20T07:07:44;47.85;;;19.60;;
37407;SDS011;24866;50.248;8.252;2022-11-20T07:10:14;43.17;;;18.52;;
37407;SDS011;24866;50.248;8.252;2022-11-20T07:12:49;46.40;;;19.27;;
37407;SDS011;24866;50.248;8.252;2022-11-20T07:15:20;44.63;;;20.50;;
37407;SDS011;24866;50.248;8.252;2022-11-20T07:17:51;43.70;;;19.52;;
37407;SDS011;24866;50.248;8.252;2022-11-20T07:20:21;44.00;;;19.23;;
37407;SDS011;24866;50.248;8.252;2022-11-20T07:22:52;45.40;;;19.92;;
37407;SDS011;24866;50.248;8.252;2022-11-20T07:25:23;42.08;;;19.27;;
37407;SDS011;24866;50.248;8.252;2022-11-20T07:27:57;41.42;;;19.48;;
37407;SDS011;24866;50.248;8.252;2022-11-20T07:30:27;45.88;;;17.70;;
37407;SDS011;24866;50.248;8.252;2022-11-20T07:32:58;41.08;;;17.73;;
37407;SDS011;24866;50.248;8.252;2022-11-20T07:35:28;44.03;;;17.35;;
37407;SDS011;24866;50.248;8.252;2022-11-20T07:37:57;44.65;;;18.33;;
37407;SDS011;24866;50.248;8.252;2022-11-20T07:40:28;46.15;;;19.08;;
37407;SDS011;24866;50.248;8.252;2022-11-20T07:42:59;42.47;;;18.33;;
37407;SDS011;24866;50.248;8.252;2022-11-20T07:45:29;45.05;;;18.42;;
37407;SDS011;24866;50.248;8.252;2022-11-20T07:47:58;45.58;;;18.80;;
37407;SDS011;24866;50.248;8.252;2022-11-20T07:50:28;48.38;;;18.35;;
37407;SDS011;24866;50.248;8.252;2022-11-20T07:53:02;49.97;;;18.88;;
37407;SDS011;24866;50.248;8.252;2022-11-20T07:55:33;46.03;;;19.20;;
37407;SDS011;24866;50.248;8.252;2022-11-20T07:58:04;46.17;;;20.55;;
37407;SDS011;24866;50.248;8.252;2022-11-20T08:00:34;49.58;;;21.80;;
37407;SDS011;24866;50.248;8.252;2022-11-20T08:03:04;49.30;;;19.30;;
37407;SDS011;24866;50.248;8.252;2022-11-20T08:05:34;54.47;;;19.85;;
37407;SDS011;24866;50.248;8.252;2022-11-20T08:08:05;50.67;;;19.52;;
37407;SDS011;24866;50.248;8.252;2022-11-20T08:10:36;51.05;;;19.20;;
37407;SDS011;24866;50.248;8.252;2022-11-20T08:13:08;51.47;;;19.10;;
37407;SDS011;24866;50.248;8.252;2022-11-20T08:15:56;50.53;;;18.42;;
37407;SDS011;24866;50.248;8.252;2022-11-20T08:18:27;48.67;;;19.60;;
37407;SDS011;24866;50.248;8.252;2022-11-20T08:20:57;48.28;;;20.02;;
37407;SDS011;24866;50.248;8.252;2022-11-20T08:23:30;46.60;;;19.42;;
37407;SDS011;24866;50.248;8.252;2022-11-20T08:26:01;43.80;;;19.25;;
37407;SDS011;24866;50.248;8.252;2022-11-20T08:28:32;44.25;;;19.80;;
37407;SDS011;24866;50.248;8.252;2022-11-20T08:31:02;50.17;;;20.10;;
37407;SDS011;24866;50.248;8.252;2022-11-20T08:33:33;50.40;;;21.20;;
37407;SDS011;24866;50.248;8.252;2022-11-20T08:36:03;48.53;;;20.38;;
37407;SDS011;24866;50.248;8.252;2022-11-20T08:38:34;44.58;;;19.95;;
37407;SDS011;24866;50.248;8.252;2022-11-20T08:41:04;49.58;;;20.98;;
37407;SDS011;24866;50.248;8.252;2022-11-20T08:43:56;44.47;;;18.63;;
37407;SDS011;24866;50.248;8.252;2022-11-20T08:46:28;45.80;;;19.65;;
37407;SDS011;24866;50.248;8.252;2022-11-20T08:49:02;42.83;;;18.88;;
37407;SDS011;24866;50.248;8.252;2022-11-20T08:51:32;44.50;;;18.58;;
37407;SDS011;24866;50.248;8.252;2022-11-20T08:54:03;39.40;;;17.90;;
37407;SDS011;24866;50.248;8.252;2022-11-20T08:56:34;43.47;;;19.55;;
37407;SDS011;24866;50.248;8.252;2022-11-20T08:59:06;41.17;;;18.83;;
37407;SDS011;24866;50.248;8.252;2022-11-20T09:01:35;39.38;;;18.58;;
37407;SDS011;24866;50.248;8.252;2022-11-20T09:04:05;42.17;;;17.35;;
37407;SDS011;24866;50.248;8.252;2022-11-20T09:06:35;39.20;;;18.52;;
37407;SDS011;24866;50.248;8.252;2022-11-20T09:09:05;35.42;;;16.42;;
37407;SDS011;24866;50.248;8.252;2022-11-20T09:11:35;40.75;;;17.85;;
37407;SDS011;24866;50.248;8.252;2022-11-20T09:14:07;41.50;;;19.20;;
37407;SDS011;24866;50.248;8.252;2022-11-20T09:16:37;44.53;;;20.25;;
37407;SDS011;24866;50.248;8.252;2022-11-20T09:19:07;40.88;;;19.52;;
37407;SDS011;24866;50.248;8.252;2022-11-20T09:21:37;47.45;;;21.33;;
37407;SDS011;24866;50.248;8.252;2022-11-20T09:24:07;37.95;;;18.25;;
37407;SDS011;24866;50.248;8.252;2022-11-20T09:26:37;41.03;;;18.20;;
37407;SDS011;24866;50.248;8.252;2022-11-20T09:29:08;37.20;;;18.85;;
37407;SDS011;24866;50.248;8.252;2022-11-20T09:31:38;39.15;;;18.83;;
37407;SDS011;24866;50.248;8.252;2022-11-20T09:34:08;37.70;;;18.02;;
37407;SDS011;24866;50.248;8.252;2022-11-20T09:36:39;37.35;;;17.95;;
37407;SDS011;24866;50.248;8.252;2022-11-20T09:39:08;39.10;;;17.83;;
37407;SDS011;24866;50.248;8.252;2022-11-20T09:41:46;38.60;;;18.55;;
37407;SDS011;24866;50.248;8.252;2022-11-20T09:47:39;33.83;;;18.30;;
37407;SDS011;24866;50.248;8.252;2022-11-20T09:50:24;37.55;;;18.95;;
37407;SDS011;24866;50.248;8.252;2022-11-20T09:53:07;38.80;;;19.40;;
37407;SDS011;24866;50.248;8.252;2022-11-20T09:55:41;35.65;;;18.52;;
37407;SDS011;24866;50.248;8.252;2022-11-20T09:58:13;31.55;;;16.77;;
37407;SDS011;24866;50.248;8.252;2022-11-20T10:00:52;30.45;;;16.38;;
37407;SDS011;24866;50.248;8.252;2022-11-20T10:03:26;33.80;;;16.33;;
37407;SDS011;24866;50.248;8.252;2022-11-20T10:06:05;30.40;;;15.38;;
37407;SDS011;24866;50.248;8.252;2022-11-20T10:08:41;30.35;;;15.07;;
37407;SDS011;24866;50.248;8.252;2022-11-20T10:11:18;30.15;;;15.60;;
37407;SDS011;24866;50.248;8.252;2022-11-20T10:13:59;30.00;;;15.48;;
37407;SDS011;24866;50.248;8.252;2022-11-20T10:16:40;28.17;;;14.77;;
37407;SDS011;24866;50.248;8.252;2022-11-20T10:19:21;27.27;;;14.48;;
37407;SDS011;24866;50.248;8.252;2022-11-20T10:22:03;31.00;;;15.57;;
37407;SDS011;24866;50.248;8.252;2022-11-20T10:24:48;26.83;;;14.10;;
37407;SDS011;24866;50.248;8.252;2022-11-20T10:27:37;33.38;;;15.75;;
37407;SDS011;24866;50.248;8.252;2022-11-20T10:30:17;28.80;;;14.20;;
37407;SDS011;24866;50.248;8.252;2022-11-20T10:32:52;23.75;;;11.95;;
37407;SDS011;24866;50.248;8.252;2022-11-20T10:35:25;23.80;;;11.60;;
37407;SDS011;24866;50.248;8.252;2022-11-20T10:37:58;22.92;;;11.98;;
37407;SDS011;24866;50.248;8.252;2022-11-20T10:40:31;26.95;;;13.68;;
37407;SDS011;24866;50.248;8.252;2022-11-20T10:43:08;26.70;;;14.80;;
37407;SDS011;24866;50.248;8.252;2022-11-20T10:45:52;25.63;;;13.82;;
37407;SDS011;24866;50.248;8.252;2022-11-20T10:48:27;26.50;;;13.27;;
37407;SDS011;24866;50.248;8.252;2022-11-20T10:51:07;22.20;;;11.60;;
37407;SDS011;24866;50.248;8.252;2022-11-20T10:53:54;17.75;;;8.35;;
37407;SDS011;24866;50.248;8.252;2022-11-20T10:59:07;18.63;;;10.25;;
37407;SDS011;24866;50.248;8.252;2022-11-20T11:02:18;24.38;;;12.35;;
37407;SDS011;24866;50.248;8.252;2022-11-20T11:04:51;24.55;;;12.45;;
37407;SDS011;24866;50.248;8.252;2022-11-20T11:07:22;22.48;;;12.38;;
37407;SDS011;24866;50.248;8.252;2022-11-20T11:09:55;23.08;;;11.77;;
37407;SDS011;24866;50.248;8.252;2022-11-20T11:12:27;25.52;;;12.45;;
37407;SDS011;24866;50.248;8.252;2022-11-20T11:14:57;26.93;;;14.23;;
37407;SDS011;24866;50.248;8.252;2022-11-20T11:17:28;30.58;;;15.68;;
37407;SDS011;24866;50.248;8.252;2022-11-20T11:20:01;29.45;;;14.95;;
37407;SDS011;24866;50.248;8.252;2022-11-20T11:22:34;31.15;;;16.45;;
37407;SDS011;24866;50.248;8.252;2022-11-20T11:25:21;34.15;;;17.33;;
37407;SDS011;24866;50.248;8.252;2022-11-20T11:27:57;36.22;;;17.20;;
37407;SDS011;24866;50.248;8.252;2022-11-20T11:30:29;33.17;;;17.48;;
37407;SDS011;24866;50.248;8.252;2022-11-20T11:33:11;29.67;;;15.05;;
37407;SDS011;24866;50.248;8.252;2022-11-20T11:35:49;32.53;;;15.05;;
37407;SDS011;24866;50.248;8.252;2022-11-20T11:38:21;34.42;;;17.08;;
37407;SDS011;24866;50.248;8.252;2022-11-20T11:40:57;34.25;;;17.10;;
37407;SDS011;24866;50.248;8.252;2022-11-20T11:43:28;29.50;;;16.05;;
37407;SDS011;24866;50.248;8.252;2022-11-20T11:46:29;30.23;;;16.33;;
37407;SDS011;24866;50.248;8.252;2022-11-20T11:49:08;29.90;;;15.57;;
37407;SDS011;24866;50.248;8.252;2022-11-20T11:51:51;29.75;;;14.75;;
37407;SDS011;24866;50.248;8.252;2022-11-20T11:54:34;26.98;;;14.57;;
37407;SDS011;24866;50.248;8.252;2022-11-20T11:57:10;23.83;;;12.77;;
37407;SDS011;24866;50.248;8.252;2022-11-20T11:59:46;24.30;;;13.05;;
37407;SDS011;24866;50.248;8.252;2022-11-20T12:02:27;21.52;;;12.05;;
37407;SDS011;24866;50.248;8.252;2022-11-20T12:05:06;19.30;;;10.25;;
37407;SDS011;24866;50.248;8.252;2022-11-20T12:07:47;16.57;;;9.53;;
37407;SDS011;24866;50.248;8.252;2022-11-20T12:10:22;16.65;;;10.18;;
37407;SDS011;24866;50.248;8.252;2022-11-20T12:13:04;18.42;;;10.45;;
37407;SDS011;24866;50.248;8.252;2022-11-20T12:15:45;18.02;;;9.60;;
37407;SDS011;24866;50.248;8.252;2022-11-20T12:18:17;16.52;;;10.00;;
37407;SDS011;24866;50.248;8.252;2022-11-20T12:20:53;21.08;;;11.45;;
37407;SDS011;24866;50.248;8.252;2022-11-20T12:23:35;19.63;;;10.68;;
37407;SDS011;24866;50.248;8.252;2022-11-20T12:26:27;18.38;;;9.85;;
37407;SDS011;24866;50.248;8.252;2022-11-20T12:29:06;18.75;;;10.73;;
37407;SDS011;24866;50.248;8.252;2022-11-20T12:31:52;17.67;;;10.30;;
37407;SDS011;24866;50.248;8.252;2022-11-20T12:34:39;18.35;;;10.38;;
37407;SDS011;24866;50.248;8.252;2022-11-20T12:37:23;16.30;;;8.77;;
37407;SDS011;24866;50.248;8.252;2022-11-20T12:40:06;17.83;;;9.43;;
37407;SDS011;24866;50.248;8.252;2022-11-20T12:42:55;18.85;;;9.00;;
37407;SDS011;24866;50.248;8.252;2022-11-20T12:45:54;22.33;;;11.15;;
37407;SDS011;24866;50.248;8.252;2022-11-20T12:51:47;16.83;;;9.55;;
37407;SDS011;24866;50.248;8.252;2022-11-20T12:57:26;15.10;;;8.43;;
37407;SDS011;24866;50.248;8.252;2022-11-20T13:00:09;13.77;;;8.43;;
37407;SDS011;24866;50.248;8.252;2022-11-20T13:03:00;17.15;;;9.13;;
37407;SDS011;24866;50.248;8.252;2022-11-20T13:05:52;12.85;;;7.55;;
37407;SDS011;24866;50.248;8.252;2022-11-20T13:08:29;16.25;;;8.63;;
37407;SDS011;24866;50.248;8.252;2022-11-20T13:11:05;14.27;;;8.77;;
37407;SDS011;24866;50.248;8.252;2022-11-20T13:13:45;13.77;;;7.95;;
37407;SDS011;24866;50.248;8.252;2022-11-20T13:16:29;14.60;;;9.00;;
37407;SDS011;24866;50.248;8.252;2022-11-20T13:19:08;15.73;;;8.30;;
37407;SDS011;24866;50.248;8.252;2022-11-20T13:21:41;14.57;;;8.15;;
37407;SDS011;24866;50.248;8.252;2022-11-20T13:27:05;16.90;;;9.48;;
37407;SDS011;24866;50.248;8.252;2022-11-20T13:30:00;14.77;;;8.55;;
37407;SDS011;24866;50.248;8.252;2022-11-20T13:32:47;13.07;;;8.50;;
37407;SDS011;24866;50.248;8.252;2022-11-20T13:35:25;15.82;;;9.60;;
37407;SDS011;24866;50.248;8.252;2022-11-20T13:38:00;15.07;;;9.18;;
37407;SDS011;24866;50.248;8.252;2022-11-20T13:40:33;15.10;;;9.35;;
37407;SDS011;24866;50.248;8.252;2022-11-20T13:43:15;16.17;;;8.85;;
37407;SDS011;24866;50.248;8.252;2022-11-20T13:45:55;19.27;;;10.65;;
37407;SDS011;24866;50.248;8.252;2022-11-20T13:48:29;18.35;;;11.07;;
37407;SDS011;24866;50.248;8.252;2022-11-20T13:51:12;14.85;;;9.02;;
37407;SDS011;24866;50.248;8.252;2022-11-20T13:56:43;12.60;;;7.95;;
37407;SDS011;24866;50.248;8.252;2022-11-20T14:02:11;14.82;;;8.93;;
37407;SDS011;24866;50.248;8.252;2022-11-20T14:04:44;13.77;;;9.15;;
37407;SDS011;24866;50.248;8.252;2022-11-20T14:07:17;16.65;;;9.77;;
37407;SDS011;24866;50.248;8.252;2022-11-20T14:09:50;18.52;;;11.13;;
37407;SDS011;24866;50.248;8.252;2022-11-20T14:12:22;21.70;;;12.52;;
37407;SDS011;24866;50.248;8.252;2022-11-20T14:14:56;24.27;;;13.25;;
37407;SDS011;24866;50.248;8.252;2022-11-20T14:17:31;25.92;;;15.57;;
37407;SDS011;24866;50.248;8.252;2022-11-20T14:20:03;23.92;;;14.52;;
37407;SDS011;24866;50.248;8.252;2022-11-20T14:22:35;28.40;;;15.40;;
37407;SDS011;24866;50.248;8.252;2022-11-20T14:25:06;32.17;;;16.85;;
37407;SDS011;24866;50.248;8.252;2022-11-20T14:27:50;26.90;;;15.38;;
37407;SDS011;24866;50.248;8.252;2022-11-20T14:30:23;28.52;;;16.15;;
37407;SDS011;24866;50.248;8.252;2022-11-20T14:32:57;28.63;;;15.85;;
37407;SDS011;24866;50.248;8.252;2022-11-20T14:35:34;26.73;;;15.35;;
37407;SDS011;24866;50.248;8.252;2022-11-20T14:38:09;27.88;;;14.73;;
37407;SDS011;24866;50.248;8.252;2022-11-20T14:40:42;28.95;;;16.90;;
37407;SDS011;24866;50.248;8.252;2022-11-20T14:43:20;25.75;;;14.95;;
37407;SDS011;24866;50.248;8.252;2022-11-20T14:45:55;24.05;;;15.15;;
37407;SDS011;24866;50.248;8.252;2022-11-20T14:48:30;25.67;;;14.02;;
37407;SDS011;24866;50.248;8.252;2022-11-20T14:51:03;27.77;;;15.00;;
37407;SDS011;24866;50.248;8.252;2022-11-20T14:53:33;27.52;;;15.52;;
37407;SDS011;24866;50.248;8.252;2022-11-20T14:56:03;24.85;;;15.07;;
37407;SDS011;24866;50.248;8.252;2022-11-20T14:58:33;28.35;;;15.68;;
37407;SDS011;24866;50.248;8.252;2022-11-20T15:01:04;22.38;;;13.32;;
37407;SDS011;24866;50.248;8.252;2022-11-20T15:03:37;29.10;;;14.15;;
37407;SDS011;24866;50.248;8.252;2022-11-20T15:06:10;30.08;;;15.13;;
37407;SDS011;24866;50.248;8.252;2022-11-20T15:08:50;27.40;;;15.67;;
37407;SDS011;24866;50.248;8.252;2022-11-20T15:11:23;30.08;;;17.85;;
37407;SDS011;24866;50.248;8.252;2022-11-20T15:13:59;34.42;;;18.23;;
37407;SDS011;24866;50.248;8.252;2022-11-20T15:16:32;31.40;;;17.55;;
37407;SDS011;24866;50.248;8.252;2022-11-20T15:19:04;30.17;;;16.77;;
37407;SDS011;24866;50.248;8.252;2022-11-20T15:21:45;31.27;;;16.80;;
37407;SDS011;24866;50.248;8.252;2022-11-20T15:24:15;27.83;;;15.52;;